Hlavní strana
METAR-TAF:

METAR-TAF

Letiště :

Puerto Francisco de Orellana, Ekvádor

zeměpisná šířka: 00-27-46S, zeměpisná délka: 076-59-12W, výška: 254 m

Aktuální stav počasí

Zpráva byla vytvořena před 9 hodinami a 48 minutami, v 23:00 UTC
Východní vítr 2 kt
Teplota 27°C
Vlhkost vzduchu 89%
Tlak 1012 hPa
Viditelnost 10 km a více
Skoro jasno ve výšce 3000 ft
Polojasno ve výšce 30000 ft

METAR: SECO 272300Z 08002KT 9999 FEW030 SCT300 27/25 Q1012 RMK A2988

Čas: 03:48 (08:48 UTC)


TAF: chybějící

Stav a předpovědi počasí z více než 4 000 letišť (zprávy METAR a TAF).

Červené a žluté tečky na mapě představují dostupné meteorologické stanice.

Když kurzor umístíte na tečku, zobrazí se název stanice.

Pak kliknutím zobrazíte stav a předpověď počasí.

Chcete-li změnit mapu, kliknutím na zelené tlačítko se znaménkem +mapu přiblížíte, kliknutím na zelené tlačítko se znaménkem – mapu oddálíte a kliknutím na zelené šipky přejdete na sousední mapy.


METAR-TAF: